»·PEaware :: BAW103 EGLL-CYYC

BAW103 :: EGLL-CYYC

FLIGHT INFORMATION

Flight Status: Arrived
Operator:
British Airways
More flights by this operator :: More flights under this callsign
Pilot: Jamyson D. (13674)
Aircraft: Unknown
(B788)
More flights by this aircraft type
Origin: EGLL Heathrow
United Kingdom
Destination: CYYC Calgary Intl
Canada
More flights between these airports :: More routes between these airports
Route: CPT3F CPT UL9 GAVGO UL18 LIPGO ERNAN APSOV/M084F380 KESIX SUNOT 59N020W 62N030W 64N040W 65N050W/N0500F380 AVPUT BERAK/N0505F400 NCAW 100W YKJ DUDNI BIRKO3
File this flight plan on PilotEdge
Remarks:
Altitude:
(Current/Filed)
38,000ft
Speed:
(Current/Filed)
493kts
Departed: 01-Jun-18 12:17 AM
Arrived: 01-Jun-18 09:26 AM
Distance/Time
Traveled:
3784nm/9:09
Distance/Time
To Go:
Arrived

Flight Plot

Page will automatically refresh every two minutes.

Flight plan parsing failed; only flown route is shown


Map Options




Map Legend


Flown Route
Filed Route
Departure Airport
Arrival Airport
Navaid (VOR, NDB)
Fix

Horizontal Profiles

Position Reports

Time Latitude Longitude Heading Altitude Ground
Speed
01-Jun-18 00:08 51.472034 -0.483585 359 96ft 6kts
01-Jun-18 00:09 51.474771 -0.483248 65 96ft 9kts
01-Jun-18 00:10 51.474892 -0.477604 89 96ft 15kts
01-Jun-18 00:11 51.475818 -0.470612 89 96ft 17kts
01-Jun-18 00:12 51.475927 -0.461795 89 96ft 21kts
01-Jun-18 00:13 51.475958 -0.453047 89 96ft 17kts
01-Jun-18 00:14 51.475976 -0.445952 90 96ft 15kts
01-Jun-18 00:15 51.475926 -0.438500 89 96ft 17kts
01-Jun-18 00:16 51.477677 -0.435881 270 96ft 21kts
01-Jun-18 00:17 51.477697 -0.490915 269 1345ft 162kts
01-Jun-18 00:18 51.472022 -0.573984 252 3653ft 227kts
01-Jun-18 00:19 51.457442 -0.684107 266 5955ft 268kts
01-Jun-18 00:20 51.454343 -0.805635 267 7029ft 279kts
01-Jun-18 00:21 51.457867 -0.930403 280 10312ft 293kts
01-Jun-18 00:22 51.475048 -1.073241 279 11401ft 359kts
01-Jun-18 00:23 51.493547 -1.236333 279 14038ft 379kts
01-Jun-18 00:24 51.514664 -1.406604 279 16530ft 396kts
01-Jun-18 00:25 51.542104 -1.581462 283 18966ft 412kts
01-Jun-18 00:26 51.571660 -1.762787 280 21359ft 425kts
01-Jun-18 00:27 51.598449 -1.950531 280 23537ft 438kts
01-Jun-18 00:28 51.625880 -2.144127 280 25463ft 451kts
01-Jun-18 00:29 51.653830 -2.344169 279 27181ft 463kts
01-Jun-18 00:30 51.682019 -2.548594 279 28740ft 473kts
01-Jun-18 00:31 51.710445 -2.757593 279 30218ft 482kts
01-Jun-18 00:32 51.739137 -2.971861 279 31579ft 492kts
01-Jun-18 00:33 51.768805 -3.186147 287 33555ft 488kts
01-Jun-18 00:34 51.842613 -3.370855 314 35147ft 494kts
01-Jun-18 00:35 51.938847 -3.529868 312 36678ft 493kts
01-Jun-18 00:36 52.022790 -3.671900 312 37907ft 493kts
01-Jun-18 00:37 52.117504 -3.832636 313 39241ft 491kts
01-Jun-18 00:38 52.212302 -3.994618 313 40094ft 494kts
01-Jun-18 00:39 52.307342 -4.157998 312 40115ft 498kts
01-Jun-18 00:40 52.402603 -4.322934 312 40105ft 500kts
01-Jun-18 00:41 52.498100 -4.489467 312 40100ft 500kts
01-Jun-18 00:42 52.593081 -4.656162 312 40120ft 500kts
01-Jun-18 00:43 52.687782 -4.823598 312 40112ft 500kts
01-Jun-18 00:44 52.782585 -4.992276 312 40088ft 500kts
01-Jun-18 00:45 52.876756 -5.161115 312 40096ft 500kts
01-Jun-18 00:46 52.971067 -5.331214 312 40103ft 500kts
01-Jun-18 00:47 53.065140 -5.500938 315 40097ft 500kts
01-Jun-18 00:48 53.168723 -5.655372 318 40100ft 500kts
01-Jun-18 00:49 53.272299 -5.810779 318 40109ft 500kts
01-Jun-18 00:50 53.375480 -5.966171 317 40117ft 499kts
01-Jun-18 00:51 53.478377 -6.122269 317 40109ft 499kts
01-Jun-18 00:52 53.581428 -6.279637 317 40105ft 499kts
01-Jun-18 00:53 53.683903 -6.437210 317 40116ft 499kts
01-Jun-18 00:54 53.786191 -6.595567 317 40114ft 499kts
01-Jun-18 00:55 53.888506 -6.755004 317 40103ft 498kts
01-Jun-18 00:56 53.973183 -6.887912 317 40109ft 498kts
01-Jun-18 00:57 54.074514 -7.047977 316 40108ft 497kts
01-Jun-18 00:58 54.175869 -7.209095 316 40092ft 497kts
01-Jun-18 00:59 54.276574 -7.370377 316 40092ft 496kts
01-Jun-18 01:00 54.377032 -7.532382 316 40079ft 496kts
01-Jun-18 01:01 54.477481 -7.695611 316 40081ft 496kts
01-Jun-18 01:02 54.577336 -7.858844 316 40090ft 495kts
01-Jun-18 01:03 54.676920 -8.022909 315 40086ft 495kts
01-Jun-18 01:04 54.776577 -8.188245 315 40077ft 495kts
01-Jun-18 01:05 54.875723 -8.353885 315 40082ft 495kts
01-Jun-18 01:06 54.974918 -8.520919 315 40090ft 495kts
01-Jun-18 01:07 55.073556 -8.688175 315 40083ft 495kts
01-Jun-18 01:08 55.172017 -8.856192 315 40076ft 495kts
01-Jun-18 01:09 55.270507 -9.025640 315 40084ft 495kts
01-Jun-18 01:10 55.368421 -9.195387 314 40091ft 495kts
01-Jun-18 01:11 55.465972 -9.365681 314 40082ft 494kts
01-Jun-18 01:12 55.563609 -9.537400 314 40079ft 494kts
01-Jun-18 01:13 55.660659 -9.709399 314 40088ft 494kts
01-Jun-18 01:14 55.757477 -9.882229 314 40097ft 494kts
01-Jun-18 01:15 55.877773 -9.992464 356 40087ft 503kts
01-Jun-18 01:16 56.006901 -9.914068 43 40093ft 503kts
01-Jun-18 01:17 56.063702 -9.694587 90 40103ft 492kts
01-Jun-18 01:18 56.013858 -9.480748 137 40090ft 476kts
01-Jun-18 01:19 55.898610 -9.367076 154 40084ft 472kts
01-Jun-18 01:20 55.779959 -9.264611 152 40087ft 473kts
01-Jun-18 01:21 55.662321 -9.160088 152 40091ft 473kts
01-Jun-18 01:22 55.545334 -9.053487 151 40081ft 473kts
01-Jun-18 01:23 55.428629 -8.944345 151 40078ft 474kts
01-Jun-18 01:24 55.313175 -8.832992 150 40088ft 474kts
01-Jun-18 01:25 55.198728 -8.718776 149 40090ft 474kts
01-Jun-18 01:26 55.090211 -8.587769 136 40075ft 476kts
01-Jun-18 01:27 54.991050 -8.435901 139 40089ft 474kts
01-Jun-18 01:28 54.891066 -8.286508 138 40085ft 474kts
01-Jun-18 01:29 54.790599 -8.137327 138 40077ft 474kts
01-Jun-18 01:30 54.690312 -7.989398 138 40082ft 474kts
01-Jun-18 01:31 54.589489 -7.841656 139 40089ft 474kts
01-Jun-18 01:32 54.488789 -7.695071 139 40088ft 474kts
01-Jun-18 01:33 54.387912 -7.549210 139 40079ft 475kts
01-Jun-18 01:34 54.296899 -7.387228 114 40086ft 477kts
01-Jun-18 01:35 54.296478 -7.167285 65 40090ft 477kts
01-Jun-18 01:36 54.394476 -7.025864 15 40099ft 476kts
01-Jun-18 01:37 54.521266 -7.064964 323 40095ft 479kts
01-Jun-18 01:38 54.599545 -7.250351 297 40092ft 489kts
01-Jun-18 01:39 54.665828 -7.457365 298 40091ft 496kts
01-Jun-18 01:40 54.734646 -7.665181 299 40080ft 498kts
01-Jun-18 01:41 54.804401 -7.871212 299 40083ft 498kts
01-Jun-18 01:42 54.876058 -8.077675 300 40091ft 498kts
01-Jun-18 01:43 54.949324 -8.282460 301 40083ft 497kts
01-Jun-18 01:44 55.031305 -8.475570 315 40081ft 500kts
01-Jun-18 01:45 55.126553 -8.651034 312 40089ft 498kts
01-Jun-18 01:46 55.220764 -8.828998 312 40085ft 497kts
01-Jun-18 01:47 55.314269 -9.007180 312 40076ft 497kts
01-Jun-18 01:48 55.407706 -9.186461 311 40083ft 496kts
01-Jun-18 01:49 55.500500 -9.365841 311 40091ft 496kts
01-Jun-18 01:50 55.593017 -9.545940 311 40085ft 495kts
01-Jun-18 01:51 55.685497 -9.727467 311 40079ft 495kts
01-Jun-18 01:52 55.777409 -9.909209 311 40091ft 495kts
01-Jun-18 01:53 55.857023 -10.107484 297 40097ft 493kts
01-Jun-18 01:54 55.921579 -10.323952 297 40098ft 494kts
01-Jun-18 01:55 55.986444 -10.538767 297 40090ft 493kts
01-Jun-18 01:56 56.051156 -10.755832 297 40092ft 494kts
01-Jun-18 01:57 56.115595 -10.973664 297 40104ft 494kts
01-Jun-18 01:58 56.179347 -11.191347 296 40103ft 493kts
01-Jun-18 01:59 56.242683 -11.409649 296 40095ft 493kts
01-Jun-18 02:00 56.305770 -11.629358 296 40099ft 493kts
01-Jun-18 02:01 56.368226 -11.848783 296 40110ft 492kts
01-Jun-18 02:02 56.430257 -12.068760 296 40107ft 492kts
01-Jun-18 02:03 56.492156 -12.290168 296 40099ft 492kts
01-Jun-18 02:04 56.553382 -12.511585 295 40106ft 492kts
01-Jun-18 02:05 56.614443 -12.734468 295 40116ft 492kts
01-Jun-18 02:06 56.674952 -12.957551 295 40110ft 493kts
01-Jun-18 02:07 56.735142 -13.181457 295 40103ft 493kts
01-Jun-18 02:08 56.795101 -13.406864 294 40112ft 493kts
01-Jun-18 02:09 56.854452 -13.632239 294 40120ft 493kts
01-Jun-18 02:10 56.913342 -13.858309 294 40113ft 493kts
01-Jun-18 02:11 56.956039 -14.096649 279 40106ft 492kts
01-Jun-18 02:12 56.968068 -14.345705 274 40116ft 491kts
01-Jun-18 02:13 56.980861 -14.594960 273 40125ft 492kts
01-Jun-18 02:14 56.992809 -14.845301 273 40125ft 492kts
01-Jun-18 02:15 57.035755 -15.080815 304 40132ft 496kts
01-Jun-18 02:16 57.123623 -15.276030 308 40142ft 495kts
01-Jun-18 02:17 57.209581 -15.474488 307 40182ft 494kts
01-Jun-18 02:18 57.295289 -15.672562 307 40174ft 494kts
01-Jun-18 02:19 57.380661 -15.871530 307 40180ft 494kts
01-Jun-18 02:20 57.465966 -16.072079 307 40192ft 494kts
01-Jun-18 02:21 57.550680 -16.272884 307 40189ft 494kts
01-Jun-18 02:22 57.635368 -16.475335 307 40182ft 494kts
01-Jun-18 02:23 57.719432 -16.678013 307 40191ft 494kts
01-Jun-18 02:24 57.803173 -16.881766 306 40200ft 494kts
01-Jun-18 02:25 57.887021 -17.087391 306 40196ft 495kts
01-Jun-18 02:26 57.970309 -17.293320 306 40190ft 495kts
01-Jun-18 02:27 58.053211 -17.500142 306 40203ft 494kts
01-Jun-18 02:28 58.135977 -17.708563 306 40206ft 495kts
01-Jun-18 02:29 58.218181 -17.917294 306 40198ft 495kts
01-Jun-18 02:30 58.300050 -18.127022 305 40199ft 495kts
01-Jun-18 02:31 58.381829 -18.338440 305 40210ft 495kts
01-Jun-18 02:32 58.462386 -18.548338 305 40211ft 494kts
01-Jun-18 02:33 58.543552 -18.761996 305 40202ft 493kts
01-Jun-18 02:34 58.624062 -18.975676 305 40207ft 493kts
01-Jun-18 02:35 58.703832 -19.189369 304 40217ft 492kts
01-Jun-18 02:36 58.783488 -19.404681 304 40214ft 492kts
01-Jun-18 02:37 58.862499 -19.620238 304 40206ft 492kts
01-Jun-18 02:38 58.941155 -19.836785 304 40199ft 492kts
01-Jun-18 02:39 59.019227 -20.052205 304 40205ft 492kts
01-Jun-18 02:40 59.099357 -20.270595 304 40213ft 491kts
01-Jun-18 02:41 59.178189 -20.487540 304 40242ft 491kts
01-Jun-18 02:42 59.256841 -20.705996 304 40234ft 490kts
01-Jun-18 02:43 59.334811 -20.924568 304 40236ft 490kts
01-Jun-18 02:44 59.412383 -21.144085 303 40247ft 490kts
01-Jun-18 02:45 59.489755 -21.365049 303 40261ft 489kts
01-Jun-18 02:46 59.566365 -21.585904 303 40254ft 488kts
01-Jun-18 02:47 59.642513 -21.807522 303 40249ft 488kts
01-Jun-18 02:48 59.718430 -22.030599 302 40259ft 487kts
01-Jun-18 02:49 59.793177 -22.252302 302 40264ft 487kts
01-Jun-18 02:50 59.868510 -22.477867 302 40257ft 487kts
01-Jun-18 02:51 59.943213 -22.703743 302 40265ft 487kts
01-Jun-18 02:52 60.017288 -22.929882 301 40269ft 487kts
01-Jun-18 02:53 60.091019 -23.157262 301 40281ft 485kts
01-Jun-18 02:54 60.163974 -23.384312 301 40279ft 484kts
01-Jun-18 02:55 60.236453 -23.612152 301 40266ft 484kts
01-Jun-18 02:56 60.308761 -23.841725 301 40241ft 484kts
01-Jun-18 02:57 60.380418 -24.071510 301 40243ft 484kts
01-Jun-18 02:58 60.451666 -24.302232 301 40253ft 484kts
01-Jun-18 02:59 60.522650 -24.534443 300 40250ft 483kts
01-Jun-18 03:00 60.592932 -24.766680 300 40241ft 482kts
01-Jun-18 03:01 60.662457 -24.998746 300 40247ft 482kts
01-Jun-18 03:02 60.732159 -25.233841 300 40255ft 481kts
01-Jun-18 03:03 60.800942 -25.468059 299 40248ft 480kts
01-Jun-18 03:04 60.869196 -25.703020 299 40239ft 480kts
01-Jun-18 03:05 60.937258 -25.939590 299 40245ft 479kts
01-Jun-18 03:06 60.993372 -26.136627 299 40249ft 479kts
01-Jun-18 03:07 61.071544 -26.413897 298 40241ft 478kts
01-Jun-18 03:08 61.137809 -26.651802 298 40237ft 478kts
01-Jun-18 03:09 61.203680 -26.890317 298 40246ft 477kts
01-Jun-18 03:10 61.269145 -27.130466 298 40247ft 476kts
01-Jun-18 03:11 61.333933 -27.370358 297 40263ft 476kts
01-Jun-18 03:12 61.398182 -27.610903 297 40265ft 475kts
01-Jun-18 03:13 61.462177 -27.853120 297 40254ft 475kts
01-Jun-18 03:14 61.514929 -28.054682 296 40253ft 474kts
01-Jun-18 03:15 61.577734 -28.297070 296 40260ft 473kts
01-Jun-18 03:16 61.640215 -28.540991 296 40252ft 473kts
01-Jun-18 03:17 61.702126 -28.785155 296 40208ft 473kts
01-Jun-18 03:18 61.763526 -29.030269 296 40172ft 473kts
01-Jun-18 03:19 61.824689 -29.276931 295 40178ft 472kts
01-Jun-18 03:20 61.885135 -29.523524 295 40181ft 472kts
01-Jun-18 03:21 61.945084 -29.770865 294 40170ft 472kts
01-Jun-18 03:22 62.005161 -30.019545 295 40166ft 472kts
01-Jun-18 03:23 62.066583 -30.266366 295 40188ft 472kts
01-Jun-18 03:24 62.127777 -30.513961 295 40176ft 472kts
01-Jun-18 03:25 62.188684 -30.763181 295 40177ft 471kts
01-Jun-18 03:26 62.248867 -31.012531 294 40185ft 471kts
01-Jun-18 03:27 62.308817 -31.263379 294 40185ft 471kts
01-Jun-18 03:28 62.368012 -31.514178 294 40174ft 470kts
01-Jun-18 03:29 62.426692 -31.765675 294 40177ft 470kts
01-Jun-18 03:30 62.485125 -32.019202 294 40184ft 470kts
01-Jun-18 03:31 62.542915 -32.272637 294 40176ft 470kts
01-Jun-18 03:32 62.600168 -32.527013 293 40166ft 470kts
01-Jun-18 03:33 62.657178 -32.783256 293 40172ft 470kts
01-Jun-18 03:34 62.713508 -33.039447 293 40177ft 469kts
01-Jun-18 03:35 62.769351 -33.296534 293 40166ft 469kts
01-Jun-18 03:36 62.824283 -33.552638 292 40160ft 469kts
01-Jun-18 03:37 62.879658 -33.813845 292 40167ft 469kts
01-Jun-18 03:38 62.933977 -34.073425 292 40168ft 468kts
01-Jun-18 03:39 62.987975 -34.334649 292 40155ft 468kts
01-Jun-18 03:40 63.041248 -34.595733 291 40155ft 468kts
01-Jun-18 03:41 63.094215 -34.858466 291 40163ft 467kts
01-Jun-18 03:42 63.146460 -35.121065 291 40159ft 467kts
01-Jun-18 03:43 63.198137 -35.384378 290 40147ft 467kts
01-Jun-18 03:44 63.249493 -35.649423 291 40150ft 466kts
01-Jun-18 03:45 63.300188 -35.914324 290 40158ft 466kts
01-Jun-18 03:46 63.350306 -36.180025 290 40151ft 466kts
01-Jun-18 03:47 63.400084 -36.447272 289 40141ft 465kts
01-Jun-18 03:48 63.449159 -36.714373 289 40146ft 465kts
01-Jun-18 03:49 63.497775 -36.982130 289 40154ft 464kts
01-Jun-18 03:50 63.545868 -37.251208 289 40123ft 464kts
01-Jun-18 03:51 63.593217 -37.520117 288 40114ft 463kts
01-Jun-18 03:52 63.640249 -37.790544 288 40106ft 463kts
01-Jun-18 03:53 63.686585 -38.060921 288 40113ft 463kts
01-Jun-18 03:54 63.732377 -38.331917 287 40119ft 463kts
01-Jun-18 03:55 63.777783 -38.604368 287 40110ft 462kts
01-Jun-18 03:56 63.822386 -38.876417 287 40106ft 461kts
01-Jun-18 03:57 63.866483 -39.148561 287 40115ft 460kts
01-Jun-18 03:58 63.909980 -39.421828 286 40118ft 459kts
01-Jun-18 03:59 63.952805 -39.694588 286 40108ft 458kts
01-Jun-18 04:00 63.994672 -39.969103 285 40104ft 458kts
01-Jun-18 04:01 64.033723 -40.244772 284 40111ft 457kts
01-Jun-18 04:02 64.071227 -40.521756 284 40116ft 457kts
01-Jun-18 04:03 64.108414 -40.800381 284 40107ft 457kts
01-Jun-18 04:04 64.144861 -41.078643 283 40100ft 457kts
01-Jun-18 04:05 64.180393 -41.354472 283 40108ft 456kts
01-Jun-18 04:06 64.216142 -41.636843 283 40109ft 454kts
01-Jun-18 04:07 64.250785 -41.915332 283 40096ft 453kts
01-Jun-18 04:08 64.284790 -42.193883 283 40099ft 452kts
01-Jun-18 04:09 64.318376 -42.473753 282 40106ft 452kts
01-Jun-18 04:10 64.351270 -42.753449 282 40089ft 452kts
01-Jun-18 04:11 64.383668 -43.033591 281 40088ft 451kts
01-Jun-18 04:12 64.415513 -43.314534 281 40090ft 450kts
01-Jun-18 04:13 64.446602 -43.594135 281 40088ft 448kts
01-Jun-18 04:14 64.477069 -43.873339 281 40073ft 447kts
01-Jun-18 04:15 64.507008 -44.153490 281 40068ft 446kts
01-Jun-18 04:16 64.536312 -44.432961 280 40072ft 446kts
01-Jun-18 04:17 64.565169 -44.714101 280 40063ft 446kts
01-Jun-18 04:18 64.593428 -44.995168 280 40045ft 447kts
01-Jun-18 04:19 64.621224 -45.277068 279 40044ft 447kts
01-Jun-18 04:20 64.648372 -45.559345 279 40016ft 446kts
01-Jun-18 04:21 64.675077 -45.842798 279 39970ft 445kts
01-Jun-18 04:22 64.701155 -46.125374 279 39964ft 445kts
01-Jun-18 04:23 64.726723 -46.409434 278 39953ft 445kts
01-Jun-18 04:24 64.751683 -46.692978 278 39940ft 445kts
01-Jun-18 04:25 64.776073 -46.976861 278 39937ft 444kts
01-Jun-18 04:26 64.799770 -47.259290 277 39939ft 436kts
01-Jun-18 04:27 64.822159 -47.532771 277 39919ft 432kts
01-Jun-18 04:28 64.844611 -47.814119 277 39911ft 430kts
01-Jun-18 04:29 64.866209 -48.091336 276 39912ft 429kts
01-Jun-18 04:30 64.887151 -48.367163 276 39904ft 428kts
01-Jun-18 04:31 64.907610 -48.644221 275 39892ft 428kts
01-Jun-18 04:32 64.927490 -48.920655 275 39897ft 428kts
01-Jun-18 04:33 64.946907 -49.197540 275 39897ft 428kts
01-Jun-18 04:34 64.965800 -49.475769 275 39886ft 428kts
01-Jun-18 04:35 64.984146 -49.753386 275 39877ft 428kts
01-Jun-18 04:36 65.000296 -50.031841 273 39881ft 428kts
01-Jun-18 04:37 65.011180 -50.312641 271 39886ft 428kts
01-Jun-18 04:38 65.020674 -50.592852 271 39873ft 428kts
01-Jun-18 04:39 65.029610 -50.873402 271 39873ft 428kts
01-Jun-18 04:40 65.037956 -51.152268 270 39874ft 428kts
01-Jun-18 04:41 65.045974 -51.436386 270 39862ft 429kts
01-Jun-18 04:42 65.053373 -51.718240 270 39860ft 429kts
01-Jun-18 04:43 65.060245 -52.001555 269 39858ft 430kts
01-Jun-18 04:44 65.066510 -52.281897 269 39847ft 431kts
01-Jun-18 04:45 65.072416 -52.568405 268 39846ft 431kts
01-Jun-18 04:46 65.077694 -52.853187 268 39853ft 431kts
01-Jun-18 04:47 65.082459 -53.137220 268 39849ft 432kts
01-Jun-18 04:48 65.086694 -53.422646 267 39834ft 432kts
01-Jun-18 04:49 65.090338 -53.707555 267 39834ft 433kts
01-Jun-18 04:50 65.093473 -53.992955 267 39838ft 434kts
01-Jun-18 04:51 65.096094 -54.280233 267 39825ft 435kts
01-Jun-18 04:52 65.098113 -54.567252 266 39814ft 435kts
01-Jun-18 04:53 65.099648 -54.854193 266 39817ft 435kts
01-Jun-18 04:54 65.100614 -55.142120 266 39814ft 435kts
01-Jun-18 04:55 65.100970 -55.423623 265 39796ft 436kts
01-Jun-18 04:56 65.100870 -55.717046 265 39794ft 437kts
01-Jun-18 04:57 65.100188 -56.006264 265 39795ft 438kts
01-Jun-18 04:58 65.098895 -56.295251 265 39787ft 439kts
01-Jun-18 04:59 65.097064 -56.584942 264 39771ft 439kts
01-Jun-18 05:00 65.094685 -56.875560 264 39769ft 439kts
01-Jun-18 05:01 65.091736 -57.165167 264 39742ft 439kts
01-Jun-18 05:02 65.088297 -57.454776 264 39698ft 440kts
01-Jun-18 05:03 65.084168 -57.745395 263 39690ft 440kts
01-Jun-18 05:04 65.079525 -58.035447 263 39675ft 441kts
01-Jun-18 05:05 65.074317 -58.326118 263 39661ft 442kts
01-Jun-18 05:06 65.068539 -58.617079 262 39656ft 442kts
01-Jun-18 05:07 65.062173 -58.908959 262 39652ft 442kts
01-Jun-18 05:08 65.055261 -59.199787 262 39635ft 442kts
01-Jun-18 05:09 65.047768 -59.491462 262 39626ft 443kts
01-Jun-18 05:10 65.039711 -59.782459 262 39628ft 443kts
01-Jun-18 05:11 65.039960 -60.075535 271 39613ft 447kts
01-Jun-18 05:12 65.062768 -60.367031 275 39603ft 453kts
01-Jun-18 05:13 65.085438 -60.661179 275 39605ft 455kts
01-Jun-18 05:14 65.107805 -60.957390 274 39606ft 455kts
01-Jun-18 05:15 65.129547 -61.253516 274 39592ft 456kts
01-Jun-18 05:16 65.150672 -61.550651 274 39589ft 457kts
01-Jun-18 05:17 65.171401 -61.849707 274 39586ft 457kts
01-Jun-18 05:18 65.191440 -62.148856 274 39591ft 459kts
01-Jun-18 05:19 65.210965 -62.449123 274 39586ft 459kts
01-Jun-18 05:20 65.229937 -62.750965 273 39580ft 459kts
01-Jun-18 05:21 65.248250 -63.052285 273 39587ft 460kts
01-Jun-18 05:22 65.266052 -63.355244 273 39595ft 460kts
01-Jun-18 05:23 65.283220 -63.658018 273 39588ft 461kts
01-Jun-18 05:24 65.299746 -63.961885 273 39594ft 462kts
01-Jun-18 05:25 65.315789 -64.267877 273 39610ft 463kts
01-Jun-18 05:26 65.331224 -64.573783 273 39625ft 463kts
01-Jun-18 05:27 65.346005 -64.879950 272 39643ft 463kts
01-Jun-18 05:28 65.357895 -65.136328 272 39645ft 463kts
01-Jun-18 05:29 65.371545 -65.443197 272 39662ft 463kts
01-Jun-18 05:30 65.384563 -65.750659 272 39669ft 464kts
01-Jun-18 05:31 65.397039 -66.060051 272 39665ft 465kts
01-Jun-18 05:32 65.410738 -66.420860 271 39668ft 466kts
01-Jun-18 05:33 65.421839 -66.730572 271 39681ft 466kts
01-Jun-18 05:34 65.432347 -67.041217 271 39690ft 465kts
01-Jun-18 05:35 65.440612 -67.299481 271 39679ft 466kts
01-Jun-18 05:36 65.449829 -67.610068 271 39691ft 467kts
01-Jun-18 05:37 65.458568 -67.922402 270 39698ft 467kts
01-Jun-18 05:38 65.466618 -68.234432 270 39692ft 468kts
01-Jun-18 05:39 65.473978 -68.546645 270 39691ft 468kts
01-Jun-18 05:40 65.480821 -68.859893 270 39733ft 467kts
01-Jun-18 05:41 65.486899 -69.172150 270 39734ft 467kts
01-Jun-18 05:42 65.492406 -69.485831 269 39745ft 468kts
01-Jun-18 05:43 65.496403 -69.799115 267 39745ft 469kts
01-Jun-18 05:44 65.495061 -70.113078 264 39742ft 469kts
01-Jun-18 05:45 65.477696 -70.424816 260 39714ft 468kts
01-Jun-18 05:46 65.460037 -70.734754 260 39716ft 468kts
01-Jun-18 05:47 65.441585 -71.043872 260 39725ft 467kts
01-Jun-18 05:48 65.422464 -71.353553 259 39736ft 468kts
01-Jun-18 05:49 65.402763 -71.662113 259 39751ft 468kts
01-Jun-18 05:50 65.382342 -71.970677 259 39754ft 469kts
01-Jun-18 05:51 65.361288 -72.280208 259 39752ft 470kts
01-Jun-18 05:52 65.339603 -72.588441 258 39768ft 469kts
01-Jun-18 05:53 65.317316 -72.895843 258 39776ft 469kts
01-Jun-18 05:54 65.294330 -73.203543 258 39771ft 469kts
01-Jun-18 05:55 65.270792 -73.510038 258 39781ft 470kts
01-Jun-18 05:56 65.246604 -73.816304 258 39795ft 470kts
01-Jun-18 05:57 65.221680 -74.123294 257 39795ft 471kts
01-Jun-18 05:58 65.196194 -74.428963 257 39793ft 471kts
01-Jun-18 05:59 65.170088 -74.734128 257 39809ft 471kts
01-Jun-18 06:00 65.143278 -75.039654 257 39815ft 471kts
01-Jun-18 06:01 65.115953 -75.343334 256 39810ft 471kts
01-Jun-18 06:02 65.088010 -75.646410 256 39815ft 471kts
01-Jun-18 06:03 65.059325 -75.950081 256 39834ft 471kts
01-Jun-18 06:04 65.030165 -76.252238 256 39829ft 471kts
01-Jun-18 06:05 65.000235 -76.554690 255 39824ft 471kts
01-Jun-18 06:06 64.969818 -76.855382 255 39835ft 471kts
01-Jun-18 06:07 64.938844 -77.155456 255 39840ft 471kts
01-Jun-18 06:08 64.907114 -77.455714 255 39831ft 471kts
01-Jun-18 06:09 64.874888 -77.754316 255 39828ft 471kts
01-Jun-18 06:10 64.844505 -78.030374 255 39839ft 471kts
01-Jun-18 06:11 64.808601 -78.350358 254 39863ft 471kts
01-Jun-18 06:12 64.774579 -78.646718 254 39862ft 471kts
01-Jun-18 06:13 64.739983 -78.942426 254 39876ft 471kts
01-Jun-18 06:14 64.704892 -79.236677 254 39918ft 472kts
01-Jun-18 06:15 64.668891 -79.532842 253 39953ft 471kts
01-Jun-18 06:16 64.632544 -79.826103 253 39955ft 470kts
01-Jun-18 06:17 64.595589 -80.118991 253 39965ft 470kts
01-Jun-18 06:18 64.558180 -80.409974 253 39984ft 470kts
01-Jun-18 06:19 64.520595 -80.697523 253 39988ft 470kts
01-Jun-18 06:20 64.481435 -80.991355 253 39992ft 471kts
01-Jun-18 06:21 64.442144 -81.280864 252 40012ft 472kts
01-Jun-18 06:22 64.402204 -81.570646 252 40025ft 471kts
01-Jun-18 06:23 64.361823 -81.858444 252 40017ft 471kts
01-Jun-18 06:24 64.320922 -82.145237 252 40034ft 471kts
01-Jun-18 06:25 64.279292 -82.431955 251 40038ft 471kts
01-Jun-18 06:26 64.237303 -82.717049 251 40042ft 471kts
01-Jun-18 06:27 64.194641 -83.001340 251 40055ft 471kts
01-Jun-18 06:28 64.150957 -83.285540 251 40053ft 471kts
01-Jun-18 06:29 64.105017 -83.566240 250 40042ft 471kts
01-Jun-18 06:30 64.057988 -83.844983 249 40048ft 470kts
01-Jun-18 06:31 64.010393 -84.123224 249 40058ft 469kts
01-Jun-18 06:32 63.962436 -84.399493 249 40054ft 469kts
01-Jun-18 06:33 63.913988 -84.674633 249 40048ft 469kts
01-Jun-18 06:34 63.865236 -84.947614 249 40058ft 468kts
01-Jun-18 06:35 63.815485 -85.222291 249 40070ft 469kts
01-Jun-18 06:36 63.765355 -85.495300 248 40068ft 469kts
01-Jun-18 06:37 63.714769 -85.766834 248 40074ft 470kts
01-Jun-18 06:38 63.663660 -86.037884 248 40093ft 471kts
01-Jun-18 06:39 63.611742 -86.308845 248 40105ft 470kts
01-Jun-18 06:40 63.559663 -86.578004 248 40156ft 470kts
01-Jun-18 06:41 63.507017 -86.845717 247 40205ft 470kts
01-Jun-18 06:42 63.453743 -87.113175 247 40222ft 469kts
01-Jun-18 06:43 63.400231 -87.378527 247 40235ft 469kts
01-Jun-18 06:44 63.346245 -87.642748 247 40237ft 469kts
01-Jun-18 06:45 63.291615 -87.906694 247 40279ft 469kts
01-Jun-18 06:46 63.237067 -88.167063 247 40276ft 468kts
01-Jun-18 06:47 63.181307 -88.429840 247 40287ft 468kts
01-Jun-18 06:48 63.125250 -88.690657 246 40296ft 468kts
01-Jun-18 06:49 63.068974 -88.949447 246 40290ft 468kts
01-Jun-18 06:50 63.012224 -89.207208 246 40289ft 468kts
01-Jun-18 06:51 62.954792 -89.464902 246 40301ft 468kts
01-Jun-18 06:52 62.897048 -89.720794 246 40303ft 468kts
01-Jun-18 06:53 62.838085 -89.974787 244 40295ft 468kts
01-Jun-18 06:54 62.771434 -90.220671 241 40307ft 469kts
01-Jun-18 06:55 62.702771 -90.462650 241 40317ft 470kts
01-Jun-18 06:56 62.633486 -90.704552 241 40315ft 470kts
01-Jun-18 06:57 62.563972 -90.944631 241 40313ft 470kts
01-Jun-18 06:58 62.494091 -91.183441 240 40325ft 470kts
01-Jun-18 06:59 62.423586 -91.421818 240 40332ft 469kts
01-Jun-18 07:00 62.352986 -91.658077 240 40330ft 469kts
01-Jun-18 07:01 62.282036 -91.893117 240 40341ft 469kts
01-Jun-18 07:02 62.210529 -92.127532 240 40358ft 468kts
01-Jun-18 07:03 62.138891 -92.359990 240 40359ft 468kts
01-Jun-18 07:04 62.066865 -92.591346 240 40352ft 468kts
01-Jun-18 07:05 61.994208 -92.822345 239 40361ft 468kts
01-Jun-18 07:06 61.921440 -93.051338 239 40370ft 468kts
01-Jun-18 07:07 61.848380 -93.279063 239 40367ft 467kts
01-Jun-18 07:08 61.774735 -93.506344 239 40365ft 467kts
01-Jun-18 07:09 61.700987 -93.731713 239 40383ft 467kts
01-Jun-18 07:10 61.626878 -93.955978 238 40390ft 467kts
01-Jun-18 07:11 61.552155 -94.179914 238 40364ft 467kts
01-Jun-18 07:12 61.477333 -94.401986 238 40374ft 467kts
01-Jun-18 07:13 61.402679 -94.621483 238 40381ft 467kts
01-Jun-18 07:14 61.326492 -94.843363 238 40372ft 466kts
01-Jun-18 07:15 61.250789 -95.061688 238 40367ft 466kts
01-Jun-18 07:16 61.174491 -95.279672 237 40375ft 466kts
01-Jun-18 07:17 61.098184 -95.495688 237 40379ft 465kts
01-Jun-18 07:18 61.021569 -95.710520 237 40374ft 465kts
01-Jun-18 07:19 60.944378 -95.924967 237 40384ft 465kts
01-Jun-18 07:20 60.867151 -96.137509 236 40391ft 464kts
01-Jun-18 07:21 60.789624 -96.348973 236 40390ft 464kts
01-Jun-18 07:22 60.711572 -96.559943 236 40403ft 464kts
01-Jun-18 07:23 60.633425 -96.769247 236 40407ft 464kts
01-Jun-18 07:24 60.555019 -96.977332 236 40400ft 463kts
01-Jun-18 07:25 60.476093 -97.184964 235 40402ft 463kts
01-Jun-18 07:26 60.397209 -97.390632 235 40415ft 463kts
01-Jun-18 07:27 60.317810 -97.595890 235 40415ft 462kts
01-Jun-18 07:28 60.238406 -97.799234 235 40407ft 462kts
01-Jun-18 07:29 60.158770 -98.001447 235 40405ft 461kts
01-Jun-18 07:30 60.078609 -98.203226 234 40413ft 461kts
01-Jun-18 07:31 59.998407 -98.403381 234 40370ft 461kts
01-Jun-18 07:32 59.918007 -98.602371 234 40379ft 460kts
01-Jun-18 07:33 59.837166 -98.800615 234 40378ft 459kts
01-Jun-18 07:34 59.756527 -98.996773 234 40368ft 458kts
01-Jun-18 07:35 59.675526 -99.192323 233 40367ft 457kts
01-Jun-18 07:36 59.594579 -99.385731 233 40376ft 457kts
01-Jun-18 07:37 59.513110 -99.578978 233 40375ft 457kts
01-Jun-18 07:38 59.431616 -99.770674 233 40364ft 457kts
01-Jun-18 07:39 59.349882 -99.961498 233 40357ft 457kts
01-Jun-18 07:40 59.278610 -100.166485 240 40326ft 453kts
01-Jun-18 07:41 59.210365 -100.372814 239 40327ft 452kts
01-Jun-18 07:42 59.142015 -100.577600 239 40335ft 450kts
01-Jun-18 07:43 59.073302 -100.781947 239 40328ft 450kts
01-Jun-18 07:44 59.004496 -100.984476 239 40308ft 449kts
01-Jun-18 07:45 58.935519 -101.185929 239 40296ft 449kts
01-Jun-18 07:46 58.866115 -101.386885 238 40321ft 448kts
01-Jun-18 07:47 58.796736 -101.586087 238 40315ft 447kts
01-Jun-18 07:48 58.726907 -101.784851 238 40298ft 446kts
01-Jun-18 07:49 58.657181 -101.981698 238 40305ft 445kts
01-Jun-18 07:50 58.587295 -102.177373 237 40302ft 444kts
01-Jun-18 07:51 58.516965 -102.372688 237 40289ft 444kts
01-Jun-18 07:52 58.458357 -102.534220 237 40294ft 444kts
01-Jun-18 07:53 58.387782 -102.727297 237 40296ft 444kts
01-Jun-18 07:54 58.316729 -102.920231 236 40284ft 444kts
01-Jun-18 07:55 58.245586 -103.111591 236 40279ft 444kts
01-Jun-18 07:56 58.174888 -103.300398 235 40289ft 436kts
01-Jun-18 07:57 58.104613 -103.486674 235 40278ft 432kts
01-Jun-18 07:58 58.034708 -103.670392 235 40268ft 430kts
01-Jun-18 07:59 57.964801 -103.852849 235 40275ft 429kts
01-Jun-18 08:00 57.894553 -104.034714 235 40275ft 428kts
01-Jun-18 08:01 57.824349 -104.215144 234 40261ft 428kts
01-Jun-18 08:02 57.753639 -104.395391 234 40257ft 428kts
01-Jun-18 08:03 57.682964 -104.574239 234 40264ft 428kts
01-Jun-18 08:04 57.612109 -104.752351 234 40262ft 427kts
01-Jun-18 08:05 57.540801 -104.930147 233 40249ft 427kts
01-Jun-18 08:06 57.469490 -105.106630 233 40249ft 427kts
01-Jun-18 08:07 57.398001 -105.282382 233 40258ft 427kts
01-Jun-18 08:08 57.326016 -105.457974 233 40252ft 427kts
01-Jun-18 08:09 57.254016 -105.632306 233 40243ft 427kts
01-Jun-18 08:10 57.181796 -105.805935 232 40249ft 427kts
01-Jun-18 08:11 57.096942 -105.960363 223 40233ft 429kts
01-Jun-18 08:12 57.009251 -106.108420 223 40231ft 429kts
01-Jun-18 08:13 56.921345 -106.255680 223 40238ft 428kts
01-Jun-18 08:14 56.833203 -106.402759 223 40229ft 428kts
01-Jun-18 08:15 56.745162 -106.548393 222 40214ft 427kts
01-Jun-18 08:16 56.656721 -106.693776 222 40215ft 427kts
01-Jun-18 08:17 56.568401 -106.838004 222 40215ft 427kts
01-Jun-18 08:18 56.479965 -106.981491 222 40198ft 427kts
01-Jun-18 08:19 56.391027 -107.124849 222 40191ft 427kts
01-Jun-18 08:20 56.302248 -107.267021 221 40196ft 427kts
01-Jun-18 08:21 56.213890 -107.407678 221 40188ft 427kts
01-Jun-18 08:22 56.123870 -107.549967 221 40174ft 427kts
01-Jun-18 08:23 56.034642 -107.690133 221 40175ft 427kts
01-Jun-18 08:24 55.945250 -107.829693 221 40181ft 427kts
01-Jun-18 08:25 55.855409 -107.968963 221 40176ft 427kts
01-Jun-18 08:26 55.765749 -108.107177 220 40154ft 427kts
01-Jun-18 08:27 55.675680 -108.245036 220 40160ft 426kts
01-Jun-18 08:28 55.585846 -108.381894 220 40166ft 426kts
01-Jun-18 08:29 55.495809 -108.517955 220 40155ft 426kts
01-Jun-18 08:30 55.405324 -108.653927 220 40144ft 427kts
01-Jun-18 08:31 55.314874 -108.789077 219 40147ft 427kts
01-Jun-18 08:32 55.224183 -108.923636 219 40143ft 427kts
01-Jun-18 08:33 55.133002 -109.058137 219 40126ft 428kts
01-Jun-18 08:34 55.042113 -109.191360 219 40126ft 426kts
01-Jun-18 08:35 54.951526 -109.323455 219 40131ft 425kts
01-Jun-18 08:36 54.860552 -109.455212 218 40121ft 425kts
01-Jun-18 08:37 54.769635 -109.586057 218 40112ft 425kts
01-Jun-18 08:38 54.678233 -109.716833 218 40115ft 425kts
01-Jun-18 08:39 54.587002 -109.846537 218 40123ft 425kts
01-Jun-18 08:40 54.495689 -109.975801 218 40114ft 425kts
01-Jun-18 08:41 54.403831 -110.104713 217 40104ft 425kts
01-Jun-18 08:42 54.312128 -110.232858 217 40109ft 426kts
01-Jun-18 08:43 54.220230 -110.360485 217 40116ft 426kts
01-Jun-18 08:44 54.127910 -110.487923 217 40104ft 426kts
01-Jun-18 08:45 54.035706 -110.614444 217 40095ft 426kts
01-Jun-18 08:46 53.943247 -110.740548 216 40097ft 427kts
01-Jun-18 08:47 53.850155 -110.866813 216 40091ft 428kts
01-Jun-18 08:48 53.756951 -110.992455 216 40077ft 429kts
01-Jun-18 08:49 53.663131 -111.118292 216 40074ft 430kts
01-Jun-18 08:50 53.569279 -111.243316 216 40077ft 431kts
01-Jun-18 08:51 53.475098 -111.368029 216 40062ft 432kts
01-Jun-18 08:52 53.380412 -111.492804 216 40061ft 432kts
01-Jun-18 08:53 53.285818 -111.616757 216 40058ft 432kts
01-Jun-18 08:54 53.190921 -111.740221 215 40033ft 433kts
01-Jun-18 08:55 53.095471 -111.863749 215 39838ft 433kts
01-Jun-18 08:56 53.001061 -111.985342 214 38162ft 426kts
01-Jun-18 08:57 52.907620 -112.104889 213 36395ft 423kts
01-Jun-18 08:58 52.814335 -112.223611 212 34674ft 421kts
01-Jun-18 08:59 52.721441 -112.341190 212 33009ft 421kts
01-Jun-18 09:00 52.627359 -112.459601 212 31236ft 425kts
01-Jun-18 09:01 52.533915 -112.576567 213 29509ft 420kts
01-Jun-18 09:02 52.441577 -112.691555 213 27870ft 413kts
01-Jun-18 09:03 52.350331 -112.804545 213 26162ft 407kts
01-Jun-18 09:04 52.260949 -112.914589 212 24509ft 399kts
01-Jun-18 09:05 52.159190 -112.978726 191 23010ft 389kts
01-Jun-18 09:06 52.055552 -113.022101 192 21668ft 379kts
01-Jun-18 09:07 51.954379 -113.064734 193 20272ft 374kts
01-Jun-18 09:08 51.854018 -113.106811 193 18976ft 370kts
01-Jun-18 09:09 51.754772 -113.148217 194 17612ft 365kts
01-Jun-18 09:10 51.657097 -113.188790 194 16355ft 360kts
01-Jun-18 09:11 51.560449 -113.228758 194 15004ft 355kts
01-Jun-18 09:12 51.469433 -113.281340 223 13727ft 345kts
01-Jun-18 09:13 51.409312 -113.393175 230 12573ft 305kts
01-Jun-18 09:14 51.358263 -113.490881 230 11508ft 269kts
01-Jun-18 09:15 51.310759 -113.581424 230 10607ft 263kts
01-Jun-18 09:16 51.278698 -113.680010 289 9597ft 261kts
01-Jun-18 09:17 51.311615 -113.780878 292 8752ft 247kts
01-Jun-18 09:18 51.349839 -113.855093 5 7856ft 227kts
01-Jun-18 09:19 51.400154 -113.882923 286 7082ft 208kts
01-Jun-18 09:20 51.383275 -113.969061 221 6165ft 210kts
01-Jun-18 09:21 51.328214 -113.990053 182 5289ft 188kts
01-Jun-18 09:22 51.278377 -113.989924 178 5000ft 175kts
01-Jun-18 09:23 51.229795 -113.990249 180 4995ft 174kts
01-Jun-18 09:24 51.183293 -113.990257 180 4273ft 156kts
01-Jun-18 09:25 51.140998 -113.990300 179 3570ft 125kts
01-Jun-18 09:26 51.129868 -113.990454 185 3570ft 0kts
01-Jun-18 09:27 51.127113 -113.992964 259 3570ft 22kts
01-Jun-18 09:28 51.127164 -114.001369 338 3570ft 3kts
01-Jun-18 09:29 51.129111 -114.001149 328 3570ft 2kts
01-Jun-18 09:30 51.129274 -114.001299 331 3570ft 0kts
01-Jun-18 09:31 51.129278 -114.001303 331 3570ft 0kts
01-Jun-18 09:32 51.129278 -114.001303 331 3570ft 0kts
01-Jun-18 09:33 51.129278 -114.001303 331 3570ft 0kts
01-Jun-18 09:34 51.129278 -114.001303 331 3570ft 0kts
01-Jun-18 09:35 51.129278 -114.001303 331 3570ft 0kts
01-Jun-18 09:36 51.129278 -114.001303 331 3570ft 0kts
01-Jun-18 09:37 51.129278 -114.001303 331 3570ft 0kts
01-Jun-18 09:38 51.129278 -114.001303 331 3570ft 0kts
01-Jun-18 09:39 51.129278 -114.001303 331 3570ft 0kts
01-Jun-18 09:40 51.129278 -114.001303 331 3570ft 0kts

Navigation Log

Ident Type
Flight plan parsing failed, navigation log unavailable